createdAt,value
2018-12-16T00:00:38.093Z,1010.78
2018-12-16T00:01:38.048Z,1010.83
2018-12-16T00:02:37.974Z,1010.84
2018-12-16T00:03:37.977Z,1010.82
2018-12-16T00:04:37.855Z,1010.83
2018-12-16T00:05:37.861Z,1010.81
2018-12-16T00:06:37.739Z,1010.82
2018-12-16T00:07:37.733Z,1010.85
2018-12-16T00:08:37.613Z,1010.76
2018-12-16T00:09:37.621Z,1010.81
2018-12-16T00:10:37.611Z,1010.78
2018-12-16T00:11:37.497Z,1010.77
2018-12-16T00:12:37.495Z,1010.74
2018-12-16T00:13:37.373Z,1010.72
2018-12-16T00:14:37.376Z,1010.76
2018-12-16T00:15:37.338Z,1010.75
2018-12-16T00:16:37.253Z,1010.72
2018-12-16T00:17:37.250Z,1010.69
2018-12-16T00:18:37.133Z,1010.70
2018-12-16T00:19:37.136Z,1010.66
2018-12-16T00:20:37.010Z,1010.67
2018-12-16T00:21:37.009Z,1010.64
2018-12-16T00:22:36.977Z,1010.60
2018-12-16T00:23:36.890Z,1010.58
2018-12-16T00:24:36.889Z,1010.65
2018-12-16T00:25:36.770Z,1010.53
2018-12-16T00:26:36.771Z,1010.50
2018-12-16T00:27:36.650Z,1010.51
2018-12-16T00:28:36.647Z,1010.41
2018-12-16T00:29:36.645Z,1010.38
2018-12-16T00:30:36.535Z,1010.37
2018-12-16T00:31:36.531Z,1010.35
2018-12-16T00:32:36.410Z,1010.35
2018-12-16T00:33:36.324Z,1010.27
2018-12-16T00:34:36.276Z,1010.26
2018-12-16T00:35:36.225Z,1010.23
2018-12-16T00:36:36.173Z,1010.20
2018-12-16T00:37:36.120Z,1010.19
2018-12-16T00:38:36.068Z,1010.13
2018-12-16T00:39:36.019Z,1010.14
2018-12-16T00:40:35.963Z,1010.19
2018-12-16T00:41:35.914Z,1010.10
2018-12-16T00:42:35.863Z,1010.06
2018-12-16T00:43:35.807Z,1010.12
2018-12-16T00:44:35.759Z,1010.06
2018-12-16T00:45:35.708Z,1010.11
2018-12-16T00:46:35.654Z,1010.09
2018-12-16T00:47:35.607Z,1010.07
2018-12-16T00:48:35.552Z,1009.98
2018-12-16T00:49:35.499Z,1010.00
2018-12-16T00:50:35.452Z,1010.05
2018-12-16T00:51:35.411Z,1009.98
2018-12-16T00:52:36.641Z,1009.97
2018-12-16T00:53:35.296Z,1009.89
2018-12-16T00:54:35.243Z,1009.89
2018-12-16T00:55:35.191Z,1009.92
2018-12-16T00:56:35.143Z,1009.90
2018-12-16T00:57:35.094Z,1009.87
2018-12-16T00:58:35.038Z,1009.91
2018-12-16T00:59:34.984Z,1009.92
2018-12-16T01:00:34.939Z,1009.89
2018-12-16T01:01:34.884Z,1009.88
2018-12-16T01:02:34.833Z,1009.94
2018-12-16T01:03:34.781Z,1009.90
2018-12-16T01:04:34.733Z,1009.91
2018-12-16T01:05:34.680Z,1009.86
2018-12-16T01:06:34.627Z,1009.83
2018-12-16T01:07:34.574Z,1009.82
2018-12-16T01:08:34.523Z,1009.76
2018-12-16T01:09:34.473Z,1009.79
2018-12-16T01:10:34.420Z,1009.77
2018-12-16T01:11:34.374Z,1009.72
2018-12-16T01:12:34.316Z,1009.74
2018-12-16T01:13:34.273Z,1009.73
2018-12-16T01:14:34.210Z,1009.73
2018-12-16T01:15:34.173Z,1009.78
2018-12-16T01:16:34.110Z,1009.72
2018-12-16T01:17:34.059Z,1009.73
2018-12-16T01:18:34.070Z,1009.79
2018-12-16T01:19:33.957Z,1009.75
2018-12-16T01:20:33.902Z,1009.71
2018-12-16T01:21:33.851Z,1009.69
2018-12-16T01:22:33.803Z,1009.69
2018-12-16T01:23:33.754Z,1009.68
2018-12-16T01:24:33.697Z,1009.71
2018-12-16T01:25:33.651Z,1009.71
2018-12-16T01:26:33.595Z,1009.72
2018-12-16T01:27:33.552Z,1009.68
2018-12-16T01:28:33.494Z,1009.68
2018-12-16T01:29:33.442Z,1009.66
2018-12-16T01:30:33.390Z,1009.64
2018-12-16T01:31:33.345Z,1009.63
2018-12-16T01:32:33.288Z,1009.64
2018-12-16T01:33:33.236Z,1009.71
2018-12-16T01:34:33.182Z,1009.69
2018-12-16T01:35:33.129Z,1009.68
2018-12-16T01:36:33.080Z,1009.65
2018-12-16T01:37:33.026Z,1009.63
2018-12-16T01:38:32.983Z,1009.61
2018-12-16T01:39:32.932Z,1009.65
2018-12-16T01:40:32.891Z,1009.62
2018-12-16T01:41:32.823Z,1009.56
2018-12-16T01:42:32.774Z,1009.46
2018-12-16T01:43:32.724Z,1009.51
2018-12-16T01:44:32.667Z,1009.50
2018-12-16T01:45:32.734Z,1009.51
2018-12-16T01:46:32.608Z,1009.57
2018-12-16T01:47:32.604Z,1009.48
2018-12-16T01:48:32.488Z,1009.48
2018-12-16T01:49:32.489Z,1009.46
2018-12-16T01:50:32.371Z,1009.37
2018-12-16T01:51:32.369Z,1009.42
2018-12-16T01:52:32.366Z,1009.40
2018-12-16T01:53:32.248Z,1009.30
2018-12-16T01:54:32.248Z,1009.33
2018-12-16T01:55:32.128Z,1009.30
2018-12-16T01:56:32.130Z,1009.36
2018-12-16T01:57:32.008Z,1009.32
2018-12-16T01:58:32.005Z,1009.27
2018-12-16T01:59:32.008Z,1009.32
2018-12-16T02:00:31.882Z,1009.25
2018-12-16T02:01:31.885Z,1009.25
2018-12-16T02:02:31.763Z,1009.28
2018-12-16T02:03:31.763Z,1009.24
2018-12-16T02:04:31.847Z,1009.36
2018-12-16T02:05:31.726Z,1009.26
2018-12-16T02:06:31.726Z,1009.25
2018-12-16T02:07:31.529Z,1009.21
2018-12-16T02:08:31.521Z,1009.18
2018-12-16T02:09:31.403Z,1009.20
2018-12-16T02:10:31.400Z,1009.18
2018-12-16T02:11:31.282Z,1009.08
2018-12-16T02:12:31.289Z,1009.05
2018-12-16T02:13:31.286Z,1009.01
2018-12-16T02:14:31.159Z,1009.05
2018-12-16T02:15:31.177Z,1009.03
2018-12-16T02:16:31.042Z,1009.00
2018-12-16T02:17:31.040Z,1008.95
2018-12-16T02:18:31.037Z,1008.90
2018-12-16T02:19:30.924Z,1008.94
2018-12-16T02:20:30.920Z,1009.00
2018-12-16T02:21:30.810Z,1008.89
2018-12-16T02:22:30.803Z,1008.88
2018-12-16T02:23:30.679Z,1008.86
2018-12-16T02:24:30.679Z,1008.80
2018-12-16T02:25:30.559Z,1008.75
2018-12-16T02:26:30.561Z,1008.73
2018-12-16T02:27:30.561Z,1008.72
2018-12-16T02:28:30.438Z,1008.69
2018-12-16T02:29:30.436Z,1008.63
2018-12-16T02:30:30.318Z,1008.64
2018-12-16T02:31:30.319Z,1008.64
2018-12-16T02:32:30.315Z,1008.69
2018-12-16T02:33:30.200Z,1008.66
2018-12-16T02:34:30.199Z,1008.71
2018-12-16T02:35:30.081Z,1008.75
2018-12-16T02:36:30.089Z,1008.65
2018-12-16T02:37:29.962Z,1008.63
2018-12-16T02:38:29.954Z,1008.58
2018-12-16T02:39:29.954Z,1008.58
2018-12-16T02:40:29.839Z,1008.52
2018-12-16T02:41:29.835Z,1008.47
2018-12-16T02:42:29.717Z,1008.45
2018-12-16T02:43:29.739Z,1008.42
2018-12-16T02:44:29.597Z,1008.43
2018-12-16T02:45:29.597Z,1008.38
2018-12-16T02:46:29.560Z,1008.32
2018-12-16T02:47:29.472Z,1008.34
2018-12-16T02:48:29.474Z,1008.36
2018-12-16T02:49:29.351Z,1008.37
2018-12-16T02:50:29.358Z,1008.39
2018-12-16T02:51:29.234Z,1008.29
2018-12-16T02:52:29.237Z,1008.32
2018-12-16T02:53:29.196Z,1008.27
2018-12-16T02:54:29.119Z,1008.31
2018-12-16T02:55:29.113Z,1008.25
2018-12-16T02:56:29.006Z,1008.22
2018-12-16T02:57:28.992Z,1008.25
2018-12-16T02:58:28.870Z,1008.29
2018-12-16T02:59:28.870Z,1008.24
2018-12-16T03:00:28.872Z,1008.22
2018-12-16T03:01:28.759Z,1008.21
2018-12-16T03:02:28.754Z,1008.19
2018-12-16T03:03:28.634Z,1008.15
2018-12-16T03:04:28.629Z,1008.07
2018-12-16T03:05:28.515Z,1008.06
2018-12-16T03:06:28.510Z,1008.07
2018-12-16T03:07:28.509Z,1008.07
2018-12-16T03:08:28.389Z,1008.03
2018-12-16T03:09:28.390Z,1008.02
2018-12-16T03:10:28.271Z,1008.10
2018-12-16T03:11:28.272Z,1008.08
2018-12-16T03:12:28.149Z,1008.05
2018-12-16T03:13:28.154Z,1008.07
2018-12-16T03:14:28.154Z,1008.06
2018-12-16T03:15:28.032Z,1008.03
2018-12-16T03:16:28.027Z,1008.06
2018-12-16T03:17:27.911Z,1008.01
2018-12-16T03:18:27.911Z,1008.01
2018-12-16T03:19:27.788Z,1007.97
2018-12-16T03:20:27.790Z,1007.96
2018-12-16T03:21:27.788Z,1007.96
2018-12-16T03:22:27.670Z,1007.94
2018-12-16T03:23:27.667Z,1007.85
2018-12-16T03:24:27.550Z,1007.82
2018-12-16T03:25:27.550Z,1007.80
2018-12-16T03:26:27.433Z,1007.83
2018-12-16T03:27:27.430Z,1007.83
2018-12-16T03:28:27.425Z,1007.76
2018-12-16T03:29:27.307Z,1007.73
2018-12-16T03:30:27.311Z,1007.68
2018-12-16T03:31:27.196Z,1007.66
2018-12-16T03:32:27.193Z,1007.68
2018-12-16T03:33:27.070Z,1007.70
2018-12-16T03:34:27.065Z,1007.64
2018-12-16T03:35:27.064Z,1007.67
2018-12-16T03:36:26.947Z,1007.70
2018-12-16T03:37:26.941Z,1007.68
2018-12-16T03:38:26.828Z,1007.65
2018-12-16T03:39:26.844Z,1007.63
2018-12-16T03:40:26.705Z,1007.61
2018-12-16T03:41:26.706Z,1007.65
2018-12-16T03:42:26.701Z,1007.58
2018-12-16T03:43:26.580Z,1007.64
2018-12-16T03:44:26.585Z,1007.71
2018-12-16T03:45:26.466Z,1007.57
2018-12-16T03:46:26.462Z,1007.56
2018-12-16T03:47:26.347Z,1007.59
2018-12-16T03:48:26.343Z,1007.53
2018-12-16T03:49:26.349Z,1007.51
2018-12-16T03:50:26.223Z,1007.50
2018-12-16T03:51:26.220Z,1007.45
2018-12-16T03:52:26.100Z,1007.48
2018-12-16T03:53:26.100Z,1007.47
2018-12-16T03:54:25.996Z,1007.47
2018-12-16T03:55:25.979Z,1007.46
2018-12-16T03:56:25.980Z,1007.41
2018-12-16T03:57:25.865Z,1007.38
2018-12-16T03:58:25.863Z,1007.43
2018-12-16T03:59:25.738Z,1007.44
2018-12-16T04:00:25.755Z,1007.41
2018-12-16T04:01:25.617Z,1007.38
2018-12-16T04:02:25.619Z,1007.41
2018-12-16T04:03:25.618Z,1007.38
2018-12-16T04:04:25.498Z,1007.38
2018-12-16T04:05:25.547Z,1007.39
2018-12-16T04:06:25.384Z,1007.42
2018-12-16T04:07:25.375Z,1007.34
2018-12-16T04:08:25.260Z,1007.34
2018-12-16T04:09:25.261Z,1007.36
2018-12-16T04:10:25.256Z,1007.34
2018-12-16T04:11:25.138Z,1007.34
2018-12-16T04:12:25.139Z,1007.35
2018-12-16T04:13:25.015Z,1007.31
2018-12-16T04:14:25.022Z,1007.32
2018-12-16T04:15:24.895Z,1007.32
2018-12-16T04:16:24.897Z,1007.33
2018-12-16T04:17:24.896Z,1007.33
2018-12-16T04:18:24.775Z,1007.36
2018-12-16T04:19:24.781Z,1007.33
2018-12-16T04:20:24.655Z,1007.30
2018-12-16T04:21:24.654Z,1007.28
2018-12-16T04:22:24.538Z,1007.29
2018-12-16T04:23:27.583Z,1007.27
2018-12-16T04:24:24.540Z,1007.24
2018-12-16T04:25:24.421Z,1007.28
2018-12-16T04:26:24.416Z,1007.26
2018-12-16T04:27:24.295Z,1007.31
2018-12-16T04:28:24.293Z,1007.29
2018-12-16T04:29:24.171Z,1007.33
2018-12-16T04:30:24.262Z,1007.33
2018-12-16T04:31:24.184Z,1007.33
2018-12-16T04:32:24.054Z,1007.36
2018-12-16T04:33:24.052Z,1007.38
2018-12-16T04:34:23.936Z,1007.36
2018-12-16T04:35:23.936Z,1007.34
2018-12-16T04:36:23.813Z,1007.33
2018-12-16T04:37:23.810Z,1007.30
2018-12-16T04:38:23.809Z,1007.31
2018-12-16T04:39:23.688Z,1007.33
2018-12-16T04:40:23.696Z,1007.32
2018-12-16T04:41:23.572Z,1007.31
2018-12-16T04:42:23.568Z,1007.26
2018-12-16T04:43:23.449Z,1007.27
2018-12-16T04:44:23.448Z,1007.27
2018-12-16T04:45:23.450Z,1007.26
2018-12-16T04:46:23.336Z,1007.29
2018-12-16T04:47:23.334Z,1007.21
2018-12-16T04:48:23.207Z,1007.23
2018-12-16T04:49:23.212Z,1007.28
2018-12-16T04:50:23.088Z,1007.33
2018-12-16T04:51:23.088Z,1007.28
2018-12-16T04:52:23.099Z,1007.27
2018-12-16T04:53:22.973Z,1007.36
2018-12-16T04:54:22.980Z,1007.35
2018-12-16T04:55:22.851Z,1007.26
2018-12-16T04:56:22.849Z,1007.25
2018-12-16T04:57:22.728Z,1007.24
2018-12-16T04:58:22.734Z,1007.21
2018-12-16T04:59:22.727Z,1007.24
2018-12-16T05:00:22.608Z,1007.23
2018-12-16T05:01:22.669Z,1007.23
2018-12-16T05:02:22.491Z,1007.19
2018-12-16T05:03:22.486Z,1007.20
2018-12-16T05:04:22.367Z,1007.19
2018-12-16T05:05:22.363Z,1007.19
2018-12-16T05:06:22.367Z,1007.23
2018-12-16T05:07:22.251Z,1007.17
2018-12-16T05:08:22.249Z,1007.15
2018-12-16T05:09:22.124Z,1007.09
2018-12-16T05:10:22.123Z,1007.10
2018-12-16T05:11:22.007Z,1007.12
2018-12-16T05:12:22.001Z,1007.12
2018-12-16T05:13:22.007Z,1007.09
2018-12-16T05:14:21.881Z,1007.05
2018-12-16T05:15:21.883Z,1007.06
2018-12-16T05:16:21.766Z,1007.10
2018-12-16T05:17:21.765Z,1007.05
2018-12-16T05:18:21.643Z,1007.03
2018-12-16T05:19:21.645Z,1007.02
2018-12-16T05:20:21.640Z,1007.03
2018-12-16T05:21:21.531Z,1007.00
2018-12-16T05:22:21.524Z,1007.03
2018-12-16T05:23:21.411Z,1006.98
2018-12-16T05:24:21.403Z,1006.96
2018-12-16T05:25:21.281Z,1006.98
2018-12-16T05:26:21.282Z,1006.95
2018-12-16T05:27:21.283Z,1006.97
2018-12-16T05:28:21.162Z,1006.97
2018-12-16T05:29:21.167Z,1007.00
2018-12-16T05:30:21.039Z,1007.00
2018-12-16T05:31:21.041Z,1006.98
2018-12-16T05:32:20.920Z,1007.00
2018-12-16T05:33:20.920Z,1007.02
2018-12-16T05:34:20.917Z,1007.01
2018-12-16T05:35:20.800Z,1006.98
2018-12-16T05:36:20.802Z,1006.98
2018-12-16T05:37:20.677Z,1006.93
2018-12-16T05:38:20.681Z,1006.88
2018-12-16T05:39:20.562Z,1006.91
2018-12-16T05:40:20.556Z,1006.97
2018-12-16T05:41:20.559Z,1007.02
2018-12-16T05:42:20.437Z,1006.96
2018-12-16T05:43:20.439Z,1006.97
2018-12-16T05:44:20.316Z,1006.94
2018-12-16T05:45:20.316Z,1006.96
2018-12-16T05:46:20.196Z,1006.92
2018-12-16T05:47:20.195Z,1006.90
2018-12-16T05:48:20.198Z,1006.95
2018-12-16T05:49:20.074Z,1006.96
2018-12-16T05:50:20.077Z,1006.95
2018-12-16T05:51:19.955Z,1006.90
2018-12-16T05:52:19.957Z,1006.91
2018-12-16T05:53:19.833Z,1006.93
2018-12-16T05:54:19.835Z,1006.95
2018-12-16T05:55:19.835Z,1006.97
2018-12-16T05:56:19.715Z,1006.94
2018-12-16T05:57:19.715Z,1006.97
2018-12-16T05:58:19.595Z,1006.94
2018-12-16T05:59:19.598Z,1006.98
2018-12-16T06:00:19.478Z,1006.94
2018-12-16T06:01:19.474Z,1006.96
2018-12-16T06:02:19.474Z,1006.97
2018-12-16T06:03:19.354Z,1006.96
2018-12-16T06:04:19.354Z,1006.99
2018-12-16T06:05:19.233Z,1006.92
2018-12-16T06:06:19.234Z,1006.89
2018-12-16T06:07:19.114Z,1006.93
2018-12-16T06:08:19.111Z,1006.91
2018-12-16T06:09:19.113Z,1006.92
2018-12-16T06:10:18.991Z,1007.00
2018-12-16T06:11:18.994Z,1006.97
2018-12-16T06:12:18.871Z,1006.98
2018-12-16T06:13:18.875Z,1006.97
2018-12-16T06:14:18.754Z,1006.94
2018-12-16T06:15:18.749Z,1006.94
2018-12-16T06:16:18.756Z,1006.95
2018-12-16T06:17:18.633Z,1006.91
2018-12-16T06:18:18.636Z,1006.90
2018-12-16T06:19:18.508Z,1006.90
2018-12-16T06:20:18.511Z,1006.88
2018-12-16T06:21:18.392Z,1006.84
2018-12-16T06:22:18.386Z,1006.89
2018-12-16T06:23:18.391Z,1006.83
2018-12-16T06:24:18.269Z,1006.88
2018-12-16T06:25:18.284Z,1006.84
2018-12-16T06:26:18.151Z,1006.75
2018-12-16T06:27:18.145Z,1006.79
2018-12-16T06:28:18.029Z,1006.80
2018-12-16T06:29:18.029Z,1006.78
2018-12-16T06:30:18.026Z,1006.73
2018-12-16T06:31:17.907Z,1006.77
2018-12-16T06:32:17.904Z,1006.73
2018-12-16T06:33:17.785Z,1006.79
2018-12-16T06:34:17.787Z,1006.69
2018-12-16T06:35:17.665Z,1006.72
2018-12-16T06:36:17.665Z,1006.74
2018-12-16T06:37:17.665Z,1006.68
2018-12-16T06:38:17.543Z,1006.77
2018-12-16T06:39:17.542Z,1006.69
2018-12-16T06:40:17.429Z,1006.68
2018-12-16T06:41:17.423Z,1006.74
2018-12-16T06:42:17.319Z,1006.73
2018-12-16T06:43:17.305Z,1006.70
2018-12-16T06:44:17.309Z,1006.65
2018-12-16T06:45:17.182Z,1006.64
2018-12-16T06:46:17.187Z,1006.68
2018-12-16T06:47:17.060Z,1006.73
2018-12-16T06:48:17.581Z,1006.72
2018-12-16T06:49:16.940Z,1006.69
2018-12-16T06:50:16.945Z,1006.71
2018-12-16T06:51:16.951Z,1006.67
2018-12-16T06:52:16.822Z,1006.76
2018-12-16T06:53:16.825Z,1006.72
2018-12-16T06:54:16.701Z,1006.71
2018-12-16T06:55:16.701Z,1006.75
2018-12-16T06:56:16.579Z,1006.74
2018-12-16T06:57:16.585Z,1006.72
2018-12-16T06:58:16.585Z,1006.70
2018-12-16T06:59:16.457Z,1006.69
2018-12-16T07:00:16.460Z,1006.70
2018-12-16T07:01:16.339Z,1006.70
2018-12-16T07:02:16.336Z,1006.69
2018-12-16T07:03:16.222Z,1006.75
2018-12-16T07:04:16.221Z,1006.78
2018-12-16T07:05:16.219Z,1006.74
2018-12-16T07:06:16.097Z,1006.77
2018-12-16T07:07:16.105Z,1006.79
2018-12-16T07:08:15.976Z,1006.79
2018-12-16T07:09:15.977Z,1006.78
2018-12-16T07:10:15.847Z,1006.76
2018-12-16T07:11:15.799Z,1006.77
2018-12-16T07:12:15.748Z,1006.83
2018-12-16T07:13:15.746Z,1006.81
2018-12-16T07:14:15.643Z,1006.80
2018-12-16T07:15:15.588Z,1006.81
2018-12-16T07:16:15.538Z,1006.78
2018-12-16T07:17:15.484Z,1006.86
2018-12-16T07:18:15.438Z,1006.80
2018-12-16T07:19:15.384Z,1006.83
2018-12-16T07:20:15.353Z,1006.82
2018-12-16T07:21:15.283Z,1006.78
2018-12-16T07:22:15.255Z,1006.78
2018-12-16T07:23:15.177Z,1006.78
2018-12-16T07:24:15.132Z,1006.78
2018-12-16T07:25:15.072Z,1006.74
2018-12-16T07:26:15.021Z,1006.79
2018-12-16T07:27:14.995Z,1006.81
2018-12-16T07:28:16.571Z,1006.83
2018-12-16T07:29:14.865Z,1006.80
2018-12-16T07:30:14.817Z,1006.81
2018-12-16T07:31:14.778Z,1006.82
2018-12-16T07:32:14.732Z,1006.81
2018-12-16T07:33:14.659Z,1006.78
2018-12-16T07:34:14.609Z,1006.77
2018-12-16T07:35:14.558Z,1006.81
2018-12-16T07:36:14.513Z,1006.76
2018-12-16T07:37:18.913Z,1006.81
2018-12-16T07:38:14.404Z,1006.78
2018-12-16T07:39:14.353Z,1006.83
2018-12-16T07:40:14.304Z,1006.82
2018-12-16T07:41:14.254Z,1006.79
2018-12-16T07:42:14.198Z,1006.83
2018-12-16T07:43:14.164Z,1006.85
2018-12-16T07:44:14.102Z,1006.84
2018-12-16T07:45:14.043Z,1006.88
2018-12-16T07:46:13.991Z,1006.88
2018-12-16T07:47:13.975Z,1006.91
2018-12-16T07:48:13.915Z,1006.95
2018-12-16T07:49:13.835Z,1006.95
2018-12-16T07:50:13.782Z,1007.00
2018-12-16T07:51:13.749Z,1006.97
2018-12-16T07:52:13.681Z,1006.98
2018-12-16T07:53:13.628Z,1007.03
2018-12-16T07:54:16.164Z,1007.05
2018-12-16T07:55:13.526Z,1007.01
2018-12-16T07:56:13.484Z,1007.04
2018-12-16T07:57:13.424Z,1007.06
2018-12-16T07:58:13.372Z,1007.05
2018-12-16T07:59:13.323Z,1007.07
2018-12-16T08:00:13.272Z,1007.06
2018-12-16T08:01:13.238Z,1007.10
2018-12-16T08:02:13.183Z,1007.16
2018-12-16T08:03:13.115Z,1007.15
2018-12-16T08:04:13.063Z,1007.10
2018-12-16T08:05:13.017Z,1007.15
2018-12-16T08:06:12.963Z,1007.22
2018-12-16T08:07:12.908Z,1007.18
2018-12-16T08:08:12.867Z,1007.22
2018-12-16T08:09:12.806Z,1007.20
2018-12-16T08:10:12.759Z,1007.14
2018-12-16T08:11:12.706Z,1007.29
2018-12-16T08:12:12.655Z,1007.30
2018-12-16T08:13:12.602Z,1007.33
2018-12-16T08:14:12.550Z,1007.34
2018-12-16T08:15:12.499Z,1007.31
2018-12-16T08:16:12.456Z,1007.34
2018-12-16T08:17:12.407Z,1007.37
2018-12-16T08:18:12.351Z,1007.38
2018-12-16T08:19:12.301Z,1007.32
2018-12-16T08:20:12.246Z,1007.32
2018-12-16T08:21:12.191Z,1007.28
2018-12-16T08:22:12.142Z,1007.26
2018-12-16T08:23:12.089Z,1007.25
2018-12-16T08:24:12.035Z,1007.21
2018-12-16T08:25:11.986Z,1007.27
2018-12-16T08:26:11.939Z,1007.29
2018-12-16T08:27:11.881Z,1007.25
2018-12-16T08:28:11.831Z,1007.26
2018-12-16T08:29:11.779Z,1007.30
2018-12-16T08:30:11.731Z,1007.28
2018-12-16T08:31:11.699Z,1007.34
2018-12-16T08:32:11.628Z,1007.33
2018-12-16T08:33:11.573Z,1007.32
2018-12-16T08:34:11.541Z,1007.32
2018-12-16T08:35:11.495Z,1007.31
2018-12-16T08:36:11.418Z,1007.31
2018-12-16T08:37:11.370Z,1007.25
2018-12-16T08:38:11.317Z,1007.28
2018-12-16T08:39:11.269Z,1007.29
2018-12-16T08:40:11.219Z,1007.28
2018-12-16T08:41:11.164Z,1007.34
2018-12-16T08:42:11.111Z,1007.27
2018-12-16T08:43:11.059Z,1007.33
2018-12-16T08:44:11.007Z,1007.33
2018-12-16T08:45:10.958Z,1007.35
2018-12-16T08:46:10.905Z,1007.33
2018-12-16T08:47:10.856Z,1007.34
2018-12-16T08:48:10.804Z,1007.40
2018-12-16T08:49:10.750Z,1007.36
2018-12-16T08:50:10.702Z,1007.37
2018-12-16T08:51:10.652Z,1007.39
2018-12-16T08:52:10.599Z,1007.40
2018-12-16T08:53:10.546Z,1007.47
2018-12-16T08:54:10.504Z,1007.42
2018-12-16T08:55:10.461Z,1007.42
2018-12-16T08:56:10.398Z,1007.44
2018-12-16T08:57:10.345Z,1007.41
2018-12-16T08:58:10.293Z,1007.44
2018-12-16T08:59:10.239Z,1007.39
2018-12-16T09:00:10.189Z,1007.45
2018-12-16T09:01:10.133Z,1007.46
2018-12-16T09:02:10.087Z,1007.45
2018-12-16T09:03:10.033Z,1007.49
2018-12-16T09:04:09.982Z,1007.50
2018-12-16T09:05:09.929Z,1007.52
2018-12-16T09:06:09.879Z,1007.49
2018-12-16T09:07:09.831Z,1007.51
2018-12-16T09:08:09.784Z,1007.48
2018-12-16T09:09:09.730Z,1007.52
2018-12-16T09:10:09.677Z,1007.49
2018-12-16T09:11:09.621Z,1007.47
2018-12-16T09:12:09.572Z,1007.46
2018-12-16T09:13:09.521Z,1007.48
2018-12-16T09:14:09.468Z,1007.48
2018-12-16T09:15:09.437Z,1007.47
2018-12-16T09:16:09.365Z,1007.46
2018-12-16T09:17:09.316Z,1007.43
2018-12-16T09:18:09.263Z,1007.40
2018-12-16T09:19:09.211Z,1007.44
2018-12-16T09:20:09.160Z,1007.44
2018-12-16T09:21:09.111Z,1007.41
2018-12-16T09:22:09.061Z,1007.40
2018-12-16T09:23:09.008Z,1007.37
2018-12-16T09:24:08.955Z,1007.39
2018-12-16T09:25:08.905Z,1007.37
2018-12-16T09:26:08.853Z,1007.42
2018-12-16T09:27:08.805Z,1007.40
2018-12-16T09:28:08.762Z,1007.43
2018-12-16T09:29:08.706Z,1007.44
2018-12-16T09:30:08.650Z,1007.49
2018-12-16T09:31:08.601Z,1007.47
2018-12-16T09:32:08.551Z,1007.51
2018-12-16T09:33:08.498Z,1007.50
2018-12-16T09:34:08.444Z,1007.54
2018-12-16T09:35:08.395Z,1007.54
2018-12-16T09:36:08.343Z,1007.59
2018-12-16T09:37:08.294Z,1007.51
2018-12-16T09:38:08.240Z,1007.53
2018-12-16T09:39:08.693Z,1007.57
2018-12-16T09:40:08.139Z,1007.53
2018-12-16T09:41:08.086Z,1007.55
2018-12-16T09:42:08.035Z,1007.57
2018-12-16T09:43:08.041Z,1007.59
2018-12-16T09:44:07.936Z,1007.56
2018-12-16T09:45:07.880Z,1007.58
2018-12-16T09:46:07.828Z,1007.54
2018-12-16T09:47:07.778Z,1007.54
2018-12-16T09:48:07.729Z,1007.51
2018-12-16T09:49:07.675Z,1007.51
2018-12-16T09:50:07.627Z,1007.50
2018-12-16T09:51:07.647Z,1007.53
2018-12-16T09:52:07.527Z,1007.54
2018-12-16T09:53:07.473Z,1007.50
2018-12-16T09:54:07.420Z,1007.48
2018-12-16T09:55:07.369Z,1007.47
2018-12-16T09:56:07.363Z,1007.46
2018-12-16T09:57:07.269Z,1007.42
2018-12-16T09:58:07.215Z,1007.50
2018-12-16T09:59:07.164Z,1007.45
2018-12-16T10:00:07.120Z,1007.47
2018-12-16T10:01:07.065Z,1007.47
2018-12-16T10:02:07.015Z,1007.47
2018-12-16T10:03:06.960Z,1007.48
2018-12-16T10:04:06.907Z,1007.44
2018-12-16T10:05:06.855Z,1007.46
2018-12-16T10:06:06.806Z,1007.48
2018-12-16T10:07:06.756Z,1007.45
2018-12-16T10:08:06.708Z,1007.47
2018-12-16T10:09:06.650Z,1007.47
2018-12-16T10:10:06.602Z,1007.46
2018-12-16T10:11:06.549Z,1007.45
2018-12-16T10:12:06.500Z,1007.46
2018-12-16T10:13:06.451Z,1007.52
2018-12-16T10:14:06.396Z,1007.47
2018-12-16T10:15:06.348Z,1007.54
2018-12-16T10:16:06.310Z,1007.54
2018-12-16T10:17:06.242Z,1007.56
2018-12-16T10:18:06.194Z,1007.57
2018-12-16T10:19:06.145Z,1007.51
2018-12-16T10:20:06.091Z,1007.53
2018-12-16T10:21:06.037Z,1007.49
2018-12-16T10:22:05.990Z,1007.47
2018-12-16T10:23:05.937Z,1007.51
2018-12-16T10:24:05.887Z,1007.52
2018-12-16T10:25:05.835Z,1007.49
2018-12-16T10:26:05.781Z,1007.44
2018-12-16T10:27:05.737Z,1007.50
2018-12-16T10:28:05.681Z,1007.47
2018-12-16T10:29:05.641Z,1007.46
2018-12-16T10:30:05.579Z,1007.47
2018-12-16T10:31:05.527Z,1007.41
2018-12-16T10:32:05.474Z,1007.46
2018-12-16T10:33:05.426Z,1007.46
2018-12-16T10:34:05.371Z,1007.47
2018-12-16T10:35:05.330Z,1007.46
2018-12-16T10:36:05.271Z,1007.46
2018-12-16T10:37:05.217Z,1007.46
2018-12-16T10:38:05.172Z,1007.46
2018-12-16T10:39:05.116Z,1007.41
2018-12-16T10:40:09.121Z,1007.47
2018-12-16T10:41:05.015Z,1007.44
2018-12-16T10:42:04.968Z,1007.47
2018-12-16T10:43:04.911Z,1007.43
2018-12-16T10:44:04.859Z,1007.51
2018-12-16T10:45:04.808Z,1007.48
2018-12-16T10:46:04.756Z,1007.49
2018-12-16T10:47:04.708Z,1007.49
2018-12-16T10:48:04.662Z,1007.44
2018-12-16T10:49:04.991Z,1007.47
2018-12-16T10:50:04.552Z,1007.48
2018-12-16T10:51:04.526Z,1007.48
2018-12-16T10:52:04.455Z,1007.47
2018-12-16T10:53:04.402Z,1007.49
2018-12-16T10:54:04.352Z,1007.49
2018-12-16T10:55:04.296Z,1007.48
2018-12-16T10:56:04.247Z,1007.48
2018-12-16T10:57:04.262Z,1007.50
2018-12-16T10:58:04.143Z,1007.50
2018-12-16T10:59:04.096Z,1007.49
2018-12-16T11:00:04.039Z,1007.51
2018-12-16T11:01:03.991Z,1007.50
2018-12-16T11:02:03.939Z,1007.52
2018-12-16T11:03:03.885Z,1007.50
2018-12-16T11:04:03.836Z,1007.52
2018-12-16T11:05:03.786Z,1007.50
2018-12-16T11:06:03.732Z,1007.44
2018-12-16T11:07:03.687Z,1007.41
2018-12-16T11:08:03.632Z,1007.43
2018-12-16T11:09:03.583Z,1007.42
2018-12-16T11:10:03.529Z,1007.42
2018-12-16T11:11:03.482Z,1007.45
2018-12-16T11:12:03.428Z,1007.41
2018-12-16T11:13:03.374Z,1007.41
2018-12-16T11:14:03.324Z,1007.41
2018-12-16T11:15:03.273Z,1007.34
2018-12-16T11:16:03.228Z,1007.33
2018-12-16T11:17:03.174Z,1007.28
2018-12-16T11:18:03.121Z,1007.31
2018-12-16T11:19:03.073Z,1007.32
2018-12-16T11:20:03.017Z,1007.27
2018-12-16T11:21:02.968Z,1007.31
2018-12-16T11:22:02.914Z,1007.32
2018-12-16T11:23:02.864Z,1007.28
2018-12-16T11:24:02.820Z,1007.27
2018-12-16T11:25:05.916Z,1007.28
2018-12-16T11:26:02.713Z,1007.25
2018-12-16T11:27:02.669Z,1007.19
2018-12-16T11:28:02.613Z,1007.23
2018-12-16T11:29:02.567Z,1007.22
2018-12-16T11:30:02.513Z,1007.23
2018-12-16T11:31:02.459Z,1007.25
2018-12-16T11:32:02.408Z,1007.21
2018-12-16T11:33:02.352Z,1007.25
2018-12-16T11:34:02.306Z,1007.20
2018-12-16T11:35:02.258Z,1007.27
2018-12-16T11:36:02.206Z,1007.20
2018-12-16T11:37:02.148Z,1007.19
2018-12-16T11:38:02.111Z,1007.23
2018-12-16T11:39:02.051Z,1007.22
2018-12-16T11:40:01.999Z,1007.18
2018-12-16T11:41:01.948Z,1007.23
2018-12-16T11:42:01.895Z,1007.26
2018-12-16T11:43:01.846Z,1007.28
2018-12-16T11:44:01.794Z,1007.30
2018-12-16T11:45:01.786Z,1007.28
2018-12-16T11:46:01.788Z,1007.26
2018-12-16T11:47:01.725Z,1007.25
2018-12-16T11:48:01.633Z,1007.23
2018-12-16T11:49:01.539Z,1007.21
2018-12-16T11:50:01.533Z,1007.23
2018-12-16T11:51:01.436Z,1007.13
2018-12-16T11:52:01.387Z,1007.24
2018-12-16T11:53:01.336Z,1007.21
2018-12-16T11:54:01.290Z,1007.26
2018-12-16T11:55:01.234Z,1007.27
2018-12-16T11:56:01.187Z,1007.23
2018-12-16T11:57:01.129Z,1007.22
2018-12-16T11:58:01.084Z,1007.22
2018-12-16T11:59:01.027Z,1007.22
2018-12-16T12:00:00.980Z,1007.23
2018-12-16T12:01:00.926Z,1007.19
2018-12-16T12:02:00.875Z,1007.23
2018-12-16T12:03:00.824Z,1007.19
2018-12-16T12:04:00.774Z,1007.18
2018-12-16T12:05:00.722Z,1007.22